YXGY weather

Archery Park Helipad
Gympie, Queensland, Australia

Public forecast

Using degrees Celsius for public forecast. Weather courtesy of forecast.io.

METAR (pilot weather report)

Closest report is Kingaroy Airport, 49.6 nm (91.9 km) WSW. Retrieved 2019/02/19 22:30 UTC (36 minutes ago):

YKRY 192230Z AUTO 15007KT 9999 // BKN017 25/19 Q1011

TAF (pilot weather forecast)

Closest forecast is Brisbane International Airport, 76.0 nm (140.7 km) SSE. Retrieved 2019/02/19 18:35 UTC (5 hours ago):

TAF YBBN 191704Z 1918/2024 20005KT 9999 SCT018 FM192300 14010KT 9999 SCT030 FM200200 10014KT CAVOK FM200900 13008KT 9999 SCT018 FM201500 20008KT 9999 SCT018 FM202200 15016KT 9999 SCT020